sensor_id;sensor_type;location;lat;lon;timestamp;P1;durP1;ratioP1;P2;durP2;ratioP2
55037;SDS011;40937;53.594;10.034;2022-10-16T00:01:08;6.15;;;5.55;;
55037;SDS011;40937;53.594;10.034;2022-10-16T00:03:36;5.70;;;5.40;;
55037;SDS011;40937;53.594;10.034;2022-10-16T00:06:03;5.35;;;4.85;;
55037;SDS011;40937;53.594;10.034;2022-10-16T00:08:30;5.68;;;4.63;;
55037;SDS011;40937;53.594;10.034;2022-10-16T00:11:01;5.68;;;5.10;;
55037;SDS011;40937;53.594;10.034;2022-10-16T00:13:30;6.03;;;5.18;;
55037;SDS011;40937;53.594;10.034;2022-10-16T00:15:58;5.97;;;5.20;;
55037;SDS011;40937;53.594;10.034;2022-10-16T00:18:26;7.30;;;4.22;;
55037;SDS011;40937;53.594;10.034;2022-10-16T00:20:53;7.28;;;3.97;;
55037;SDS011;40937;53.594;10.034;2022-10-16T00:23:20;7.93;;;4.00;;
55037;SDS011;40937;53.594;10.034;2022-10-16T00:25:53;5.55;;;4.25;;
55037;SDS011;40937;53.594;10.034;2022-10-16T00:28:21;7.28;;;3.97;;
55037;SDS011;40937;53.594;10.034;2022-10-16T00:30:49;3.67;;;3.15;;
55037;SDS011;40937;53.594;10.034;2022-10-16T00:33:16;5.68;;;3.10;;
55037;SDS011;40937;53.594;10.034;2022-10-16T00:35:42;5.50;;;3.20;;
55037;SDS011;40937;53.594;10.034;2022-10-16T00:38:09;3.35;;;2.88;;
55037;SDS011;40937;53.594;10.034;2022-10-16T00:40:36;7.30;;;2.53;;
55037;SDS011;40937;53.594;10.034;2022-10-16T00:43:02;4.50;;;2.40;;
55037;SDS011;40937;53.594;10.034;2022-10-16T00:45:35;5.55;;;2.72;;
55037;SDS011;40937;53.594;10.034;2022-10-16T00:48:03;3.58;;;2.33;;
55037;SDS011;40937;53.594;10.034;2022-10-16T00:50:31;6.10;;;2.25;;
55037;SDS011;40937;53.594;10.034;2022-10-16T00:52:59;4.07;;;2.40;;
55037;SDS011;40937;53.594;10.034;2022-10-16T00:55:27;5.63;;;2.38;;
55037;SDS011;40937;53.594;10.034;2022-10-16T00:57:55;5.50;;;2.45;;
55037;SDS011;40937;53.594;10.034;2022-10-16T01:00:24;3.95;;;1.80;;
55037;SDS011;40937;53.594;10.034;2022-10-16T01:02:52;3.10;;;2.28;;
55037;SDS011;40937;53.594;10.034;2022-10-16T01:05:21;3.92;;;1.80;;
55037;SDS011;40937;53.594;10.034;2022-10-16T01:07:52;2.92;;;1.60;;
55037;SDS011;40937;53.594;10.034;2022-10-16T01:10:30;3.13;;;1.67;;
55037;SDS011;40937;53.594;10.034;2022-10-16T01:15:32;3.13;;;2.13;;
55037;SDS011;40937;53.594;10.034;2022-10-16T01:18:04;4.68;;;1.63;;
55037;SDS011;40937;53.594;10.034;2022-10-16T01:20:40;4.32;;;1.95;;
55037;SDS011;40937;53.594;10.034;2022-10-16T01:23:15;2.60;;;1.52;;
55037;SDS011;40937;53.594;10.034;2022-10-16T01:25:59;6.72;;;2.33;;
55037;SDS011;40937;53.594;10.034;2022-10-16T01:28:39;4.82;;;1.92;;
55037;SDS011;40937;53.594;10.034;2022-10-16T01:31:11;3.72;;;1.77;;
55037;SDS011;40937;53.594;10.034;2022-10-16T01:33:43;4.90;;;2.10;;
55037;SDS011;40937;53.594;10.034;2022-10-16T01:36:14;4.97;;;1.50;;
55037;SDS011;40937;53.594;10.034;2022-10-16T01:38:45;4.00;;;1.90;;
55037;SDS011;40937;53.594;10.034;2022-10-16T01:41:17;4.40;;;1.75;;
55037;SDS011;40937;53.594;10.034;2022-10-16T01:43:49;3.53;;;1.80;;
55037;SDS011;40937;53.594;10.034;2022-10-16T01:46:23;4.50;;;1.70;;
55037;SDS011;40937;53.594;10.034;2022-10-16T01:48:50;3.65;;;1.38;;
55037;SDS011;40937;53.594;10.034;2022-10-16T01:51:18;5.60;;;2.00;;
55037;SDS011;40937;53.594;10.034;2022-10-16T01:53:47;5.60;;;1.95;;
55037;SDS011;40937;53.594;10.034;2022-10-16T01:56:17;4.25;;;1.88;;
55037;SDS011;40937;53.594;10.034;2022-10-16T01:58:46;5.03;;;1.88;;
55037;SDS011;40937;53.594;10.034;2022-10-16T02:01:19;4.45;;;2.13;;
55037;SDS011;40937;53.594;10.034;2022-10-16T02:03:48;4.63;;;1.60;;
55037;SDS011;40937;53.594;10.034;2022-10-16T02:06:19;3.58;;;1.50;;
55037;SDS011;40937;53.594;10.034;2022-10-16T02:08:46;6.80;;;2.25;;
55037;SDS011;40937;53.594;10.034;2022-10-16T02:11:13;3.33;;;1.70;;
55037;SDS011;40937;53.594;10.034;2022-10-16T02:13:41;4.15;;;1.83;;
55037;SDS011;40937;53.594;10.034;2022-10-16T02:16:12;3.50;;;1.88;;
55037;SDS011;40937;53.594;10.034;2022-10-16T02:18:41;4.20;;;1.88;;
55037;SDS011;40937;53.594;10.034;2022-10-16T02:21:11;8.05;;;1.95;;
55037;SDS011;40937;53.594;10.034;2022-10-16T02:23:44;6.50;;;2.42;;
55037;SDS011;40937;53.594;10.034;2022-10-16T02:26:20;4.40;;;1.50;;
55037;SDS011;40937;53.594;10.034;2022-10-16T02:29:00;3.40;;;2.00;;
55037;SDS011;40937;53.594;10.034;2022-10-16T02:31:32;2.72;;;1.77;;
55037;SDS011;40937;53.594;10.034;2022-10-16T02:34:04;9.25;;;2.00;;
55037;SDS011;40937;53.594;10.034;2022-10-16T02:36:32;5.18;;;1.90;;
55037;SDS011;40937;53.594;10.034;2022-10-16T02:39:01;4.57;;;1.50;;
55037;SDS011;40937;53.594;10.034;2022-10-16T02:41:30;4.25;;;1.83;;
55037;SDS011;40937;53.594;10.034;2022-10-16T02:43:57;5.10;;;1.73;;
55037;SDS011;40937;53.594;10.034;2022-10-16T02:46:24;3.65;;;1.98;;
55037;SDS011;40937;53.594;10.034;2022-10-16T02:48:52;3.60;;;1.70;;
55037;SDS011;40937;53.594;10.034;2022-10-16T02:51:18;3.13;;;1.65;;
55037;SDS011;40937;53.594;10.034;2022-10-16T02:53:45;4.60;;;1.50;;
55037;SDS011;40937;53.594;10.034;2022-10-16T02:56:12;4.97;;;1.77;;
55037;SDS011;40937;53.594;10.034;2022-10-16T02:58:38;6.47;;;1.77;;
55037;SDS011;40937;53.594;10.034;2022-10-16T03:01:05;5.80;;;1.88;;
55037;SDS011;40937;53.594;10.034;2022-10-16T03:03:31;6.70;;;1.85;;
55037;SDS011;40937;53.594;10.034;2022-10-16T03:05:59;2.75;;;1.60;;
55037;SDS011;40937;53.594;10.034;2022-10-16T03:08:26;3.85;;;1.80;;
55037;SDS011;40937;53.594;10.034;2022-10-16T03:10:52;3.42;;;1.83;;
55037;SDS011;40937;53.594;10.034;2022-10-16T03:13:19;2.10;;;1.58;;
55037;SDS011;40937;53.594;10.034;2022-10-16T03:15:46;3.10;;;1.33;;
55037;SDS011;40937;53.594;10.034;2022-10-16T03:18:13;10.15;;;1.83;;
55037;SDS011;40937;53.594;10.034;2022-10-16T03:20:40;9.32;;;2.15;;
55037;SDS011;40937;53.594;10.034;2022-10-16T03:23:08;3.95;;;1.80;;
55037;SDS011;40937;53.594;10.034;2022-10-16T03:25:35;6.00;;;1.65;;
55037;SDS011;40937;53.594;10.034;2022-10-16T03:28:01;3.38;;;1.50;;
55037;SDS011;40937;53.594;10.034;2022-10-16T03:30:28;7.15;;;1.58;;
55037;SDS011;40937;53.594;10.034;2022-10-16T03:32:55;3.20;;;1.65;;
55037;SDS011;40937;53.594;10.034;2022-10-16T03:35:22;10.00;;;2.03;;
55037;SDS011;40937;53.594;10.034;2022-10-16T03:37:49;2.20;;;1.60;;
55037;SDS011;40937;53.594;10.034;2022-10-16T03:40:17;6.65;;;1.88;;
55037;SDS011;40937;53.594;10.034;2022-10-16T03:42:44;3.55;;;1.65;;
55037;SDS011;40937;53.594;10.034;2022-10-16T03:45:11;6.10;;;1.58;;
55037;SDS011;40937;53.594;10.034;2022-10-16T03:47:37;4.15;;;1.70;;
55037;SDS011;40937;53.594;10.034;2022-10-16T03:50:04;4.90;;;1.30;;
55037;SDS011;40937;53.594;10.034;2022-10-16T03:52:32;2.50;;;1.77;;
55037;SDS011;40937;53.594;10.034;2022-10-16T03:54:59;4.93;;;1.95;;
55037;SDS011;40937;53.594;10.034;2022-10-16T03:57:27;5.63;;;1.90;;
55037;SDS011;40937;53.594;10.034;2022-10-16T03:59:53;2.58;;;1.30;;
55037;SDS011;40937;53.594;10.034;2022-10-16T04:02:20;3.88;;;1.42;;
55037;SDS011;40937;53.594;10.034;2022-10-16T04:04:46;1.88;;;1.38;;
55037;SDS011;40937;53.594;10.034;2022-10-16T04:07:13;7.05;;;1.40;;
55037;SDS011;40937;53.594;10.034;2022-10-16T04:09:40;1.90;;;1.52;;
55037;SDS011;40937;53.594;10.034;2022-10-16T04:12:07;3.55;;;1.90;;
55037;SDS011;40937;53.594;10.034;2022-10-16T04:14:35;3.65;;;1.60;;
55037;SDS011;40937;53.594;10.034;2022-10-16T04:17:02;1.83;;;1.45;;
55037;SDS011;40937;53.594;10.034;2022-10-16T04:19:28;3.30;;;1.30;;
55037;SDS011;40937;53.594;10.034;2022-10-16T04:21:55;4.03;;;1.55;;
55037;SDS011;40937;53.594;10.034;2022-10-16T04:24:21;7.53;;;1.45;;
55037;SDS011;40937;53.594;10.034;2022-10-16T04:26:48;3.28;;;1.65;;
55037;SDS011;40937;53.594;10.034;2022-10-16T04:29:15;5.55;;;1.60;;
55037;SDS011;40937;53.594;10.034;2022-10-16T04:31:43;4.18;;;1.80;;
55037;SDS011;40937;53.594;10.034;2022-10-16T04:34:09;6.53;;;1.58;;
55037;SDS011;40937;53.594;10.034;2022-10-16T04:36:36;3.45;;;1.88;;
55037;SDS011;40937;53.594;10.034;2022-10-16T04:39:02;1.77;;;1.33;;
55037;SDS011;40937;53.594;10.034;2022-10-16T04:41:29;5.95;;;1.30;;
55037;SDS011;40937;53.594;10.034;2022-10-16T04:43:56;4.35;;;1.77;;
55037;SDS011;40937;53.594;10.034;2022-10-16T04:46:22;5.25;;;1.80;;
55037;SDS011;40937;53.594;10.034;2022-10-16T04:48:50;2.33;;;1.30;;
55037;SDS011;40937;53.594;10.034;2022-10-16T04:51:17;5.15;;;1.60;;
55037;SDS011;40937;53.594;10.034;2022-10-16T04:53:44;4.68;;;1.48;;
55037;SDS011;40937;53.594;10.034;2022-10-16T04:56:10;5.22;;;1.50;;
55037;SDS011;40937;53.594;10.034;2022-10-16T04:58:37;5.10;;;1.80;;
55037;SDS011;40937;53.594;10.034;2022-10-16T05:01:04;5.68;;;1.27;;
55037;SDS011;40937;53.594;10.034;2022-10-16T05:03:30;6.80;;;1.80;;
55037;SDS011;40937;53.594;10.034;2022-10-16T05:05:58;3.10;;;1.35;;
55037;SDS011;40937;53.594;10.034;2022-10-16T05:08:25;4.03;;;1.95;;
55037;SDS011;40937;53.594;10.034;2022-10-16T05:10:51;2.97;;;1.70;;
55037;SDS011;40937;53.594;10.034;2022-10-16T05:13:18;4.35;;;1.88;;
55037;SDS011;40937;53.594;10.034;2022-10-16T05:15:46;3.95;;;2.25;;
55037;SDS011;40937;53.594;10.034;2022-10-16T05:18:14;5.47;;;2.00;;
55037;SDS011;40937;53.594;10.034;2022-10-16T05:20:40;6.05;;;2.08;;
55037;SDS011;40937;53.594;10.034;2022-10-16T05:23:09;6.53;;;2.35;;
55037;SDS011;40937;53.594;10.034;2022-10-16T05:25:36;5.72;;;2.38;;
55037;SDS011;40937;53.594;10.034;2022-10-16T05:28:03;7.47;;;2.10;;
55037;SDS011;40937;53.594;10.034;2022-10-16T05:30:30;4.95;;;2.10;;
55037;SDS011;40937;53.594;10.034;2022-10-16T05:32:57;7.35;;;2.47;;
55037;SDS011;40937;53.594;10.034;2022-10-16T05:35:23;4.45;;;1.95;;
55037;SDS011;40937;53.594;10.034;2022-10-16T05:37:50;5.70;;;2.42;;
55037;SDS011;40937;53.594;10.034;2022-10-16T05:40:18;3.35;;;1.65;;
55037;SDS011;40937;53.594;10.034;2022-10-16T05:42:44;5.70;;;2.20;;
55037;SDS011;40937;53.594;10.034;2022-10-16T05:45:11;6.43;;;2.10;;
55037;SDS011;40937;53.594;10.034;2022-10-16T05:47:38;5.38;;;1.80;;
55037;SDS011;40937;53.594;10.034;2022-10-16T05:50:08;4.68;;;2.67;;
55037;SDS011;40937;53.594;10.034;2022-10-16T05:52:35;5.05;;;2.13;;
55037;SDS011;40937;53.594;10.034;2022-10-16T05:55:02;4.18;;;2.13;;
55037;SDS011;40937;53.594;10.034;2022-10-16T05:57:31;7.50;;;2.03;;
55037;SDS011;40937;53.594;10.034;2022-10-16T05:59:57;5.70;;;2.33;;
55037;SDS011;40937;53.594;10.034;2022-10-16T06:02:24;4.05;;;1.65;;
55037;SDS011;40937;53.594;10.034;2022-10-16T06:04:51;6.40;;;1.90;;
55037;SDS011;40937;53.594;10.034;2022-10-16T06:07:18;3.30;;;2.17;;
55037;SDS011;40937;53.594;10.034;2022-10-16T06:09:47;3.60;;;2.00;;
55037;SDS011;40937;53.594;10.034;2022-10-16T06:12:14;4.78;;;1.90;;
55037;SDS011;40937;53.594;10.034;2022-10-16T06:14:42;3.47;;;1.75;;
55037;SDS011;40937;53.594;10.034;2022-10-16T06:17:10;3.95;;;1.77;;
55037;SDS011;40937;53.594;10.034;2022-10-16T06:19:36;4.43;;;2.03;;
55037;SDS011;40937;53.594;10.034;2022-10-16T06:22:03;5.05;;;1.65;;
55037;SDS011;40937;53.594;10.034;2022-10-16T06:24:29;4.38;;;1.95;;
55037;SDS011;40937;53.594;10.034;2022-10-16T06:26:56;7.38;;;1.73;;
55037;SDS011;40937;53.594;10.034;2022-10-16T06:29:23;5.32;;;2.50;;
55037;SDS011;40937;53.594;10.034;2022-10-16T06:31:51;3.15;;;2.00;;
55037;SDS011;40937;53.594;10.034;2022-10-16T06:34:18;5.80;;;1.77;;
55037;SDS011;40937;53.594;10.034;2022-10-16T06:36:44;5.00;;;1.90;;
55037;SDS011;40937;53.594;10.034;2022-10-16T06:39:11;7.18;;;2.05;;
55037;SDS011;40937;53.594;10.034;2022-10-16T06:41:37;6.43;;;2.20;;
55037;SDS011;40937;53.594;10.034;2022-10-16T06:44:14;4.07;;;2.40;;
55037;SDS011;40937;53.594;10.034;2022-10-16T06:46:41;5.78;;;2.17;;
55037;SDS011;40937;53.594;10.034;2022-10-16T06:49:09;4.90;;;2.40;;
55037;SDS011;40937;53.594;10.034;2022-10-16T06:51:35;6.40;;;2.15;;
55037;SDS011;40937;53.594;10.034;2022-10-16T06:54:06;7.13;;;2.42;;
55037;SDS011;40937;53.594;10.034;2022-10-16T06:56:32;4.38;;;2.13;;
55037;SDS011;40937;53.594;10.034;2022-10-16T06:58:59;5.93;;;2.03;;
55037;SDS011;40937;53.594;10.034;2022-10-16T07:01:26;2.22;;;2.03;;
55037;SDS011;40937;53.594;10.034;2022-10-16T07:03:54;3.17;;;2.35;;
55037;SDS011;40937;53.594;10.034;2022-10-16T07:06:22;5.57;;;3.22;;
55037;SDS011;40937;53.594;10.034;2022-10-16T07:08:51;5.18;;;2.78;;
55037;SDS011;40937;53.594;10.034;2022-10-16T07:11:18;6.38;;;2.38;;
55037;SDS011;40937;53.594;10.034;2022-10-16T07:13:46;9.65;;;2.65;;
55037;SDS011;40937;53.594;10.034;2022-10-16T07:16:18;12.88;;;2.88;;
55037;SDS011;40937;53.594;10.034;2022-10-16T07:18:46;4.97;;;2.65;;
55037;SDS011;40937;53.594;10.034;2022-10-16T07:21:14;4.00;;;2.30;;
55037;SDS011;40937;53.594;10.034;2022-10-16T07:23:43;6.25;;;2.65;;
55037;SDS011;40937;53.594;10.034;2022-10-16T07:26:10;6.50;;;2.70;;
55037;SDS011;40937;53.594;10.034;2022-10-16T07:28:37;3.80;;;2.20;;
55037;SDS011;40937;53.594;10.034;2022-10-16T07:31:07;4.50;;;2.40;;
55037;SDS011;40937;53.594;10.034;2022-10-16T07:33:36;3.00;;;2.40;;
55037;SDS011;40937;53.594;10.034;2022-10-16T07:36:04;5.88;;;2.85;;
55037;SDS011;40937;53.594;10.034;2022-10-16T07:38:31;3.58;;;2.20;;
55037;SDS011;40937;53.594;10.034;2022-10-16T07:41:00;5.80;;;2.58;;
55037;SDS011;40937;53.594;10.034;2022-10-16T07:43:28;4.55;;;2.58;;
55037;SDS011;40937;53.594;10.034;2022-10-16T07:45:55;7.80;;;2.70;;
55037;SDS011;40937;53.594;10.034;2022-10-16T07:48:23;6.95;;;2.40;;
55037;SDS011;40937;53.594;10.034;2022-10-16T07:50:52;3.25;;;2.95;;
55037;SDS011;40937;53.594;10.034;2022-10-16T07:53:22;5.07;;;2.47;;
55037;SDS011;40937;53.594;10.034;2022-10-16T07:55:49;5.32;;;2.88;;
55037;SDS011;40937;53.594;10.034;2022-10-16T07:58:17;3.15;;;2.33;;
55037;SDS011;40937;53.594;10.034;2022-10-16T08:00:43;2.92;;;2.17;;
55037;SDS011;40937;53.594;10.034;2022-10-16T08:03:10;2.45;;;2.13;;
55037;SDS011;40937;53.594;10.034;2022-10-16T08:05:36;6.53;;;2.40;;
55037;SDS011;40937;53.594;10.034;2022-10-16T08:08:03;6.32;;;2.50;;
55037;SDS011;40937;53.594;10.034;2022-10-16T08:10:30;5.95;;;2.97;;
55037;SDS011;40937;53.594;10.034;2022-10-16T08:12:56;2.80;;;2.35;;
55037;SDS011;40937;53.594;10.034;2022-10-16T08:15:25;2.40;;;2.20;;
55037;SDS011;40937;53.594;10.034;2022-10-16T08:17:55;13.98;;;2.42;;
55037;SDS011;40937;53.594;10.034;2022-10-16T08:20:23;4.07;;;2.60;;
55037;SDS011;40937;53.594;10.034;2022-10-16T08:22:50;10.82;;;2.97;;
55037;SDS011;40937;53.594;10.034;2022-10-16T08:25:16;9.30;;;2.40;;
55037;SDS011;40937;53.594;10.034;2022-10-16T08:27:43;4.07;;;2.60;;
55037;SDS011;40937;53.594;10.034;2022-10-16T08:30:10;4.60;;;2.40;;
55037;SDS011;40937;53.594;10.034;2022-10-16T08:32:39;5.53;;;2.67;;
55037;SDS011;40937;53.594;10.034;2022-10-16T08:35:07;4.75;;;2.20;;
55037;SDS011;40937;53.594;10.034;2022-10-16T08:37:34;6.38;;;3.03;;
55037;SDS011;40937;53.594;10.034;2022-10-16T08:40:02;4.03;;;2.38;;
55037;SDS011;40937;53.594;10.034;2022-10-16T08:42:32;4.90;;;2.58;;
55037;SDS011;40937;53.594;10.034;2022-10-16T08:45:21;3.05;;;2.28;;
55037;SDS011;40937;53.594;10.034;2022-10-16T08:47:58;3.95;;;2.53;;
55037;SDS011;40937;53.594;10.034;2022-10-16T08:53:38;3.72;;;2.20;;
55037;SDS011;40937;53.594;10.034;2022-10-16T08:56:29;2.35;;;2.13;;
55037;SDS011;40937;53.594;10.034;2022-10-16T08:59:27;9.75;;;2.70;;
55037;SDS011;40937;53.594;10.034;2022-10-16T09:02:31;6.05;;;2.65;;
55037;SDS011;40937;53.594;10.034;2022-10-16T09:05:19;2.92;;;2.15;;
55037;SDS011;40937;53.594;10.034;2022-10-16T09:07:58;8.40;;;3.03;;
55037;SDS011;40937;53.594;10.034;2022-10-16T09:10:38;8.52;;;2.40;;
55037;SDS011;40937;53.594;10.034;2022-10-16T09:13:17;5.60;;;2.42;;
55037;SDS011;40937;53.594;10.034;2022-10-16T09:15:52;2.60;;;2.00;;
55037;SDS011;40937;53.594;10.034;2022-10-16T09:18:26;5.40;;;2.10;;
55037;SDS011;40937;53.594;10.034;2022-10-16T09:21:01;9.05;;;2.00;;
55037;SDS011;40937;53.594;10.034;2022-10-16T09:23:34;4.22;;;2.10;;
55037;SDS011;40937;53.594;10.034;2022-10-16T09:26:02;4.28;;;1.90;;
55037;SDS011;40937;53.594;10.034;2022-10-16T09:28:32;4.88;;;2.08;;
55037;SDS011;40937;53.594;10.034;2022-10-16T09:30:59;4.20;;;2.20;;
55037;SDS011;40937;53.594;10.034;2022-10-16T09:33:28;5.85;;;2.15;;
55037;SDS011;40937;53.594;10.034;2022-10-16T09:36:01;4.72;;;1.90;;
55037;SDS011;40937;53.594;10.034;2022-10-16T09:38:31;4.47;;;1.95;;
55037;SDS011;40937;53.594;10.034;2022-10-16T09:41:00;4.05;;;1.90;;
55037;SDS011;40937;53.594;10.034;2022-10-16T09:43:29;3.60;;;1.90;;
55037;SDS011;40937;53.594;10.034;2022-10-16T09:46:02;4.95;;;1.83;;
55037;SDS011;40937;53.594;10.034;2022-10-16T09:48:31;4.90;;;1.88;;
55037;SDS011;40937;53.594;10.034;2022-10-16T09:51:05;6.25;;;1.90;;
55037;SDS011;40937;53.594;10.034;2022-10-16T09:53:42;5.55;;;1.83;;
55037;SDS011;40937;53.594;10.034;2022-10-16T09:56:11;5.15;;;1.40;;
55037;SDS011;40937;53.594;10.034;2022-10-16T09:58:42;5.03;;;2.22;;
55037;SDS011;40937;53.594;10.034;2022-10-16T10:01:12;5.28;;;1.92;;
55037;SDS011;40937;53.594;10.034;2022-10-16T10:03:41;3.95;;;1.98;;
55037;SDS011;40937;53.594;10.034;2022-10-16T10:09:02;7.00;;;1.77;;
55037;SDS011;40937;53.594;10.034;2022-10-16T10:11:40;3.67;;;1.90;;
55037;SDS011;40937;53.594;10.034;2022-10-16T10:14:14;6.57;;;1.77;;
55037;SDS011;40937;53.594;10.034;2022-10-16T10:16:46;3.95;;;1.60;;
55037;SDS011;40937;53.594;10.034;2022-10-16T10:19:14;5.78;;;1.67;;
55037;SDS011;40937;53.594;10.034;2022-10-16T10:21:43;7.82;;;2.08;;
55037;SDS011;40937;53.594;10.034;2022-10-16T10:24:10;3.83;;;1.92;;
55037;SDS011;40937;53.594;10.034;2022-10-16T10:26:38;7.97;;;1.90;;
55037;SDS011;40937;53.594;10.034;2022-10-16T10:29:09;4.85;;;2.35;;
55037;SDS011;40937;53.594;10.034;2022-10-16T10:31:46;5.15;;;2.10;;
55037;SDS011;40937;53.594;10.034;2022-10-16T10:34:25;8.55;;;1.63;;
55037;SDS011;40937;53.594;10.034;2022-10-16T10:37:04;5.25;;;1.80;;
55037;SDS011;40937;53.594;10.034;2022-10-16T10:39:43;4.07;;;2.20;;
55037;SDS011;40937;53.594;10.034;2022-10-16T10:42:20;7.13;;;1.60;;
55037;SDS011;40937;53.594;10.034;2022-10-16T10:45:03;5.82;;;1.90;;
55037;SDS011;40937;53.594;10.034;2022-10-16T10:47:45;4.82;;;2.00;;
55037;SDS011;40937;53.594;10.034;2022-10-16T10:50:20;5.45;;;1.90;;
55037;SDS011;40937;53.594;10.034;2022-10-16T10:52:58;7.35;;;2.10;;
55037;SDS011;40937;53.594;10.034;2022-10-16T10:55:33;5.80;;;1.77;;
55037;SDS011;40937;53.594;10.034;2022-10-16T10:58:29;6.35;;;1.80;;
55037;SDS011;40937;53.594;10.034;2022-10-16T11:01:09;3.90;;;1.85;;
55037;SDS011;40937;53.594;10.034;2022-10-16T11:03:46;4.40;;;1.98;;
55037;SDS011;40937;53.594;10.034;2022-10-16T11:06:35;5.40;;;1.92;;
55037;SDS011;40937;53.594;10.034;2022-10-16T11:09:09;5.78;;;2.10;;
55037;SDS011;40937;53.594;10.034;2022-10-16T11:11:43;5.05;;;1.63;;
55037;SDS011;40937;53.594;10.034;2022-10-16T11:14:16;5.80;;;1.52;;
55037;SDS011;40937;53.594;10.034;2022-10-16T11:16:49;2.90;;;1.60;;
55037;SDS011;40937;53.594;10.034;2022-10-16T11:19:22;7.43;;;1.65;;
55037;SDS011;40937;53.594;10.034;2022-10-16T11:22:00;2.40;;;1.52;;
55037;SDS011;40937;53.594;10.034;2022-10-16T11:24:34;4.75;;;1.48;;
55037;SDS011;40937;53.594;10.034;2022-10-16T11:27:08;5.47;;;1.65;;
55037;SDS011;40937;53.594;10.034;2022-10-16T11:29:40;5.72;;;1.77;;
55037;SDS011;40937;53.594;10.034;2022-10-16T11:32:15;4.57;;;1.80;;
55037;SDS011;40937;53.594;10.034;2022-10-16T11:34:49;4.60;;;1.98;;
55037;SDS011;40937;53.594;10.034;2022-10-16T11:37:20;2.65;;;1.38;;
55037;SDS011;40937;53.594;10.034;2022-10-16T11:39:54;5.78;;;1.77;;
55037;SDS011;40937;53.594;10.034;2022-10-16T11:42:27;4.97;;;1.58;;
55037;SDS011;40937;53.594;10.034;2022-10-16T11:45:00;5.43;;;1.25;;
55037;SDS011;40937;53.594;10.034;2022-10-16T11:47:34;4.82;;;1.50;;
55037;SDS011;40937;53.594;10.034;2022-10-16T11:50:06;2.65;;;1.20;;
55037;SDS011;40937;53.594;10.034;2022-10-16T11:52:40;5.43;;;1.50;;
55037;SDS011;40937;53.594;10.034;2022-10-16T11:55:16;3.92;;;1.38;;
55037;SDS011;40937;53.594;10.034;2022-10-16T11:57:47;3.33;;;1.60;;
55037;SDS011;40937;53.594;10.034;2022-10-16T12:00:19;6.72;;;1.48;;
55037;SDS011;40937;53.594;10.034;2022-10-16T12:02:52;4.88;;;1.55;;
55037;SDS011;40937;53.594;10.034;2022-10-16T12:05:28;5.63;;;1.52;;
55037;SDS011;40937;53.594;10.034;2022-10-16T12:08:04;5.90;;;1.65;;
55037;SDS011;40937;53.594;10.034;2022-10-16T12:10:37;6.50;;;1.65;;
55037;SDS011;40937;53.594;10.034;2022-10-16T12:13:05;4.35;;;1.50;;
55037;SDS011;40937;53.594;10.034;2022-10-16T12:15:46;6.00;;;1.60;;
55037;SDS011;40937;53.594;10.034;2022-10-16T12:18:20;3.97;;;1.77;;
55037;SDS011;40937;53.594;10.034;2022-10-16T12:20:53;3.47;;;1.70;;
55037;SDS011;40937;53.594;10.034;2022-10-16T12:23:23;4.30;;;1.70;;
55037;SDS011;40937;53.594;10.034;2022-10-16T12:25:54;5.07;;;1.73;;
55037;SDS011;40937;53.594;10.034;2022-10-16T12:28:26;4.18;;;1.38;;
55037;SDS011;40937;53.594;10.034;2022-10-16T12:30:54;5.93;;;1.90;;
55037;SDS011;40937;53.594;10.034;2022-10-16T12:33:24;5.68;;;1.92;;
55037;SDS011;40937;53.594;10.034;2022-10-16T12:35:52;4.20;;;1.65;;
55037;SDS011;40937;53.594;10.034;2022-10-16T12:38:21;6.75;;;1.80;;
55037;SDS011;40937;53.594;10.034;2022-10-16T12:40:56;7.13;;;1.83;;
55037;SDS011;40937;53.594;10.034;2022-10-16T12:43:27;5.00;;;1.33;;
55037;SDS011;40937;53.594;10.034;2022-10-16T12:46:04;4.75;;;2.13;;
55037;SDS011;40937;53.594;10.034;2022-10-16T12:48:46;8.52;;;1.63;;
55037;SDS011;40937;53.594;10.034;2022-10-16T12:51:21;4.07;;;1.60;;
55037;SDS011;40937;53.594;10.034;2022-10-16T12:53:57;7.47;;;1.60;;
55037;SDS011;40937;53.594;10.034;2022-10-16T12:56:27;3.85;;;1.88;;
55037;SDS011;40937;53.594;10.034;2022-10-16T12:59:06;6.20;;;2.15;;
55037;SDS011;40937;53.594;10.034;2022-10-16T13:01:43;8.32;;;1.98;;
55037;SDS011;40937;53.594;10.034;2022-10-16T13:04:27;6.50;;;1.90;;
55037;SDS011;40937;53.594;10.034;2022-10-16T13:07:06;7.78;;;2.05;;
55037;SDS011;40937;53.594;10.034;2022-10-16T13:09:52;4.20;;;1.65;;
55037;SDS011;40937;53.594;10.034;2022-10-16T13:12:36;4.15;;;1.48;;
55037;SDS011;40937;53.594;10.034;2022-10-16T13:15:26;5.32;;;1.50;;
55037;SDS011;40937;53.594;10.034;2022-10-16T13:18:05;5.40;;;1.80;;
55037;SDS011;40937;53.594;10.034;2022-10-16T13:20:43;6.18;;;1.88;;
55037;SDS011;40937;53.594;10.034;2022-10-16T13:23:23;8.00;;;1.70;;
55037;SDS011;40937;53.594;10.034;2022-10-16T13:25:58;4.60;;;2.05;;
55037;SDS011;40937;53.594;10.034;2022-10-16T13:28:35;7.43;;;2.03;;
55037;SDS011;40937;53.594;10.034;2022-10-16T13:31:04;6.28;;;1.80;;
55037;SDS011;40937;53.594;10.034;2022-10-16T13:33:32;7.47;;;1.77;;
55037;SDS011;40937;53.594;10.034;2022-10-16T13:36:01;7.15;;;1.98;;
55037;SDS011;40937;53.594;10.034;2022-10-16T13:38:30;5.80;;;1.95;;
55037;SDS011;40937;53.594;10.034;2022-10-16T13:40:59;4.75;;;1.70;;
55037;SDS011;40937;53.594;10.034;2022-10-16T13:43:28;3.53;;;1.58;;
55037;SDS011;40937;53.594;10.034;2022-10-16T13:46:00;4.18;;;1.38;;
55037;SDS011;40937;53.594;10.034;2022-10-16T13:48:30;4.47;;;1.60;;
55037;SDS011;40937;53.594;10.034;2022-10-16T13:50:58;6.43;;;1.67;;
55037;SDS011;40937;53.594;10.034;2022-10-16T13:53:26;5.55;;;1.25;;
55037;SDS011;40937;53.594;10.034;2022-10-16T13:55:52;4.82;;;1.83;;
55037;SDS011;40937;53.594;10.034;2022-10-16T13:58:19;2.38;;;1.40;;
55037;SDS011;40937;53.594;10.034;2022-10-16T14:00:52;4.50;;;1.80;;
55037;SDS011;40937;53.594;10.034;2022-10-16T14:03:22;4.65;;;1.77;;
55037;SDS011;40937;53.594;10.034;2022-10-16T14:05:51;3.17;;;1.75;;
55037;SDS011;40937;53.594;10.034;2022-10-16T14:08:20;6.40;;;2.08;;
55037;SDS011;40937;53.594;10.034;2022-10-16T14:10:49;5.88;;;2.20;;
55037;SDS011;40937;53.594;10.034;2022-10-16T14:13:17;4.07;;;1.33;;
55037;SDS011;40937;53.594;10.034;2022-10-16T14:15:46;6.75;;;1.83;;
55037;SDS011;40937;53.594;10.034;2022-10-16T14:18:17;3.88;;;1.45;;
55037;SDS011;40937;53.594;10.034;2022-10-16T14:20:47;4.22;;;1.58;;
55037;SDS011;40937;53.594;10.034;2022-10-16T14:23:19;2.53;;;1.45;;
55037;SDS011;40937;53.594;10.034;2022-10-16T14:25:48;7.82;;;2.03;;
55037;SDS011;40937;53.594;10.034;2022-10-16T14:28:16;4.00;;;1.70;;
55037;SDS011;40937;53.594;10.034;2022-10-16T14:30:49;7.38;;;1.58;;
55037;SDS011;40937;53.594;10.034;2022-10-16T14:33:21;4.25;;;1.70;;
55037;SDS011;40937;53.594;10.034;2022-10-16T14:36:01;6.95;;;1.98;;
55037;SDS011;40937;53.594;10.034;2022-10-16T14:38:30;5.00;;;1.95;;
55037;SDS011;40937;53.594;10.034;2022-10-16T14:40:58;6.93;;;1.50;;
55037;SDS011;40937;53.594;10.034;2022-10-16T14:43:28;6.75;;;2.05;;
55037;SDS011;40937;53.594;10.034;2022-10-16T14:45:59;7.97;;;1.85;;
55037;SDS011;40937;53.594;10.034;2022-10-16T14:48:26;5.50;;;2.13;;
55037;SDS011;40937;53.594;10.034;2022-10-16T14:50:53;4.30;;;1.98;;
55037;SDS011;40937;53.594;10.034;2022-10-16T14:53:21;6.38;;;1.75;;
55037;SDS011;40937;53.594;10.034;2022-10-16T14:55:48;4.60;;;2.05;;
55037;SDS011;40937;53.594;10.034;2022-10-16T14:58:15;6.75;;;2.42;;
55037;SDS011;40937;53.594;10.034;2022-10-16T15:00:43;14.88;;;2.47;;